Wetterdaten: Woche 14.10.24 - 20.10.24 (KW42)
Datum Zeit Temp. I. Temp. A. Feuchte I. Feuchte A. Luftdruck Regen Wind Richtung Sonnenschein Solar Taupunkt Windchill Windböen
14.10.2024 00:00 21,7 °C 8,6 °C 60 % 85 % 1019,1 hPa 0,0 l/m² 14,1 km/h (3 Bft) SW 0,00 h 0 W/m² 6,2 °C 3,9 °C 19,4 km/h (3 Bft)
14.10.2024 01:00 21,7 °C 8,5 °C 60 % 85 % 1019,3 hPa 0,0 l/m² 13,4 km/h (3 Bft) W-SW 0,00 h 0 W/m² 6,1 °C 4,1 °C 18,0 km/h (3 Bft)
14.10.2024 02:00 21,7 °C 8,1 °C 60 % 86 % 1019,5 hPa 0,0 l/m² 11,8 km/h (2 Bft) SW 0,00 h 0 W/m² 5,9 °C 4,6 °C 16,1 km/h (3 Bft)
14.10.2024 03:00 21,7 °C 7,9 °C 60 % 87 % 1019,1 hPa 0,0 l/m² 11,6 km/h (2 Bft) SW 0,00 h 0 W/m² 5,9 °C 4,4 °C 16,2 km/h (3 Bft)
14.10.2024 04:00 21,6 °C 8,1 °C 60 % 87 % 1019,1 hPa 0,0 l/m² 9,4 km/h (2 Bft) SW 0,00 h 0 W/m² 6,1 °C 6,0 °C 13,6 km/h (3 Bft)
14.10.2024 05:00 21,7 °C 8,2 °C 60 % 87 % 1019,2 hPa 0,0 l/m² 7,8 km/h (2 Bft) SW 0,00 h 0 W/m² 6,1 °C 7,0 °C 11,1 km/h (2 Bft)
14.10.2024 06:00 21,7 °C 7,8 °C 59 % 88 % 1019,0 hPa 0,0 l/m² 7,1 km/h (2 Bft) SW 0,00 h 0 W/m² 5,9 °C 7,1 °C 10,5 km/h (2 Bft)
14.10.2024 07:00 21,6 °C 7,2 °C 58 % 89 % 1019,0 hPa 0,0 l/m² 3,0 km/h (1 Bft) SW 0,00 h 17 W/m² 5,4 °C 7,2 °C 5,6 km/h (2 Bft)
14.10.2024 08:00 21,6 °C 7,6 °C 58 % 89 % 1019,3 hPa 0,0 l/m² 2,6 km/h (1 Bft) SW 0,70 h 65 W/m² 6,0 °C 7,5 °C 5,5 km/h (2 Bft)
14.10.2024 09:00 21,7 °C 9,2 °C 58 % 86 % 1019,6 hPa 0,0 l/m² 5,6 km/h (2 Bft) SW 1,02 h 125 W/m² 6,9 °C 9,0 °C 8,4 km/h (2 Bft)
14.10.2024 10:00 22,0 °C 10,7 °C 58 % 81 % 1019,5 hPa 0,0 l/m² 8,7 km/h (2 Bft) S-SW 1,00 h 298 W/m² 7,7 °C 9,1 °C 12,1 km/h (2 Bft)
14.10.2024 11:00 22,4 °C 11,6 °C 57 % 77 % 1019,1 hPa 0,0 l/m² 6,0 km/h (2 Bft) SW 1,00 h 282 W/m² 7,6 °C 10,9 °C 9,2 km/h (2 Bft)
14.10.2024 12:00 22,4 °C 12,3 °C 57 % 69 % 1018,7 hPa 0,0 l/m² 2,3 km/h (1 Bft) SW 0,98 h 366 W/m² 6,7 °C 12,3 °C 4,8 km/h (1 Bft)
14.10.2024 13:00 22,4 °C 12,4 °C 57 % 66 % 1018,2 hPa 0,0 l/m² 1,7 km/h (1 Bft) SW 1,02 h 297 W/m² 6,3 °C 12,4 °C 3,3 km/h (1 Bft)
14.10.2024 14:00 22,3 °C 12,7 °C 57 % 66 % 1017,9 hPa 0,0 l/m² 0,6 km/h (0 Bft) SW 1,00 h 268 W/m² 6,5 °C 12,7 °C 1,6 km/h (1 Bft)
14.10.2024 15:00 22,3 °C 13,1 °C 57 % 66 % 1017,3 hPa 0,0 l/m² 2,1 km/h (1 Bft) N 1,00 h 238 W/m² 6,8 °C 13,1 °C 3,9 km/h (1 Bft)
14.10.2024 16:00 22,1 °C 12,4 °C 58 % 66 % 1017,0 hPa 0,0 l/m² 0,7 km/h (0 Bft) O-NO 0,53 h 64 W/m² 6,3 °C 12,4 °C 1,5 km/h (1 Bft)
14.10.2024 17:00 21,8 °C 11,7 °C 57 % 72 % 1016,9 hPa 0,0 l/m² 0,0 km/h (0 Bft) O-NO 0,00 h 16 W/m² 6,8 °C 11,7 °C 0,1 km/h (0 Bft)
14.10.2024 18:00 21,8 °C 11,0 °C 58 % 74 % 1017,0 hPa 0,0 l/m² 2,1 km/h (1 Bft) N-NO 0,00 h 0 W/m² 6,6 °C 11,0 °C 4,2 km/h (1 Bft)
14.10.2024 19:00 21,8 °C 10,4 °C 58 % 77 % 1017,5 hPa 0,0 l/m² 2,4 km/h (1 Bft) N-NO 0,00 h 0 W/m² 6,5 °C 10,4 °C 4,4 km/h (1 Bft)
14.10.2024 20:00 21,9 °C 10,0 °C 58 % 81 % 1018,3 hPa 0,0 l/m² 0,9 km/h (0 Bft) N-NW 0,00 h 0 W/m² 6,9 °C 10,0 °C 2,1 km/h (1 Bft)
14.10.2024 21:00 22,0 °C 8,8 °C 59 % 85 % 1018,5 hPa 0,0 l/m² 0,8 km/h (0 Bft) N-NW 0,00 h 0 W/m² 6,5 °C 8,8 °C 1,5 km/h (1 Bft)
14.10.2024 22:00 21,9 °C 7,0 °C 59 % 88 % 1019,2 hPa 0,0 l/m² 1,0 km/h (0 Bft) NW 0,00 h 0 W/m² 5,1 °C 7,0 °C 1,8 km/h (1 Bft)
14.10.2024 23:00 21,7 °C 5,5 °C 59 % 90 % 1020,0 hPa 0,0 l/m² 0,1 km/h (0 Bft) NW 0,00 h 0 W/m² 4,0 °C 5,5 °C 0,3 km/h (0 Bft)
15.10.2024 00:00 21,7 °C 4,5 °C 59 % 92 % 1020,6 hPa 0,0 l/m² 0,4 km/h (0 Bft) NW 0,00 h 0 W/m² 3,4 °C 4,5 °C 1,1 km/h (1 Bft)
15.10.2024 01:00 21,7 °C 4,0 °C 59 % 93 % 1020,8 hPa 0,0 l/m² 0,4 km/h (0 Bft) NW 0,00 h 0 W/m² 3,0 °C 4,0 °C 0,9 km/h (0 Bft)
15.10.2024 02:00 21,7 °C 3,3 °C 59 % 93 % 1021,3 hPa 0,0 l/m² 0,1 km/h (0 Bft) NW 0,00 h 0 W/m² 2,3 °C 3,3 °C 0,4 km/h (0 Bft)
15.10.2024 03:00 21,6 °C 2,9 °C 59 % 94 % 1021,9 hPa 0,0 l/m² 0,2 km/h (0 Bft) NW 0,00 h 0 W/m² 2,0 °C 2,9 °C 0,5 km/h (0 Bft)
15.10.2024 04:00 21,6 °C 2,6 °C 59 % 94 % 1022,5 hPa 0,0 l/m² 0,0 km/h (0 Bft) NW 0,00 h 0 W/m² 1,7 °C 2,6 °C 0,0 km/h (0 Bft)
15.10.2024 05:00 21,6 °C 2,1 °C 59 % 94 % 1022,7 hPa 0,0 l/m² 0,0 km/h (0 Bft) NW 0,00 h 0 W/m² 1,3 °C 2,1 °C 0,0 km/h (0 Bft)
15.10.2024 06:00 21,6 °C 1,5 °C 58 % 94 % 1022,8 hPa 0,0 l/m² 0,0 km/h (0 Bft) NW 0,00 h 0 W/m² 0,6 °C 1,5 °C 0,0 km/h (0 Bft)
15.10.2024 07:00 21,4 °C 1,1 °C 55 % 94 % 1023,5 hPa 0,0 l/m² 0,0 km/h (0 Bft) NW 0,00 h 10 W/m² 0,3 °C 1,1 °C 0,0 km/h (0 Bft)
15.10.2024 08:00 21,3 °C 1,9 °C 54 % 95 % 1024,4 hPa 0,0 l/m² 0,1 km/h (0 Bft) NW 0,55 h 70 W/m² 1,1 °C 1,9 °C 0,2 km/h (0 Bft)
15.10.2024 09:00 21,8 °C 4,6 °C 55 % 95 % 1024,7 hPa 0,0 l/m² 0,0 km/h (0 Bft) NW 0,98 h 228 W/m² 3,9 °C 4,6 °C 0,0 km/h (0 Bft)
15.10.2024 10:00 22,5 °C 7,4 °C 54 % 92 % 1025,0 hPa 0,0 l/m² 0,8 km/h (0 Bft) NW 1,02 h 362 W/m² 6,3 °C 7,4 °C 1,7 km/h (1 Bft)
15.10.2024 11:00 23,0 °C 10,4 °C 52 % 85 % 1025,0 hPa 0,0 l/m² 0,8 km/h (0 Bft) NW 1,00 h 471 W/m² 8,0 °C 10,4 °C 2,6 km/h (1 Bft)
15.10.2024 12:00 22,9 °C 12,2 °C 52 % 76 % 1025,0 hPa 0,0 l/m² 5,6 km/h (2 Bft) O-SO 0,98 h 531 W/m² 8,1 °C 11,9 °C 9,6 km/h (2 Bft)
15.10.2024 13:00 22,5 °C 12,2 °C 54 % 73 % 1025,0 hPa 0,0 l/m² 3,9 km/h (1 Bft) O 1,02 h 289 W/m² 7,6 °C 12,0 °C 6,6 km/h (2 Bft)
15.10.2024 14:00 22,3 °C 13,3 °C 52 % 69 % 1024,5 hPa 0,0 l/m² 8,6 km/h (2 Bft) O 1,00 h 459 W/m² 7,8 °C 11,9 °C 13,5 km/h (3 Bft)
15.10.2024 15:00 22,2 °C 13,5 °C 52 % 67 % 1024,2 hPa 0,0 l/m² 8,0 km/h (2 Bft) O 0,98 h 377 W/m² 7,6 °C 12,5 °C 12,7 km/h (3 Bft)
15.10.2024 16:00 22,1 °C 13,2 °C 53 % 67 % 1024,0 hPa 0,0 l/m² 8,9 km/h (2 Bft) O 1,00 h 198 W/m² 7,2 °C 11,7 °C 13,6 km/h (3 Bft)
15.10.2024 17:00 22,0 °C 11,4 °C 53 % 73 % 1023,9 hPa 0,0 l/m² 5,3 km/h (1 Bft) O-NO 0,33 h 37 W/m² 6,8 °C 11,3 °C 8,0 km/h (2 Bft)
15.10.2024 18:00 21,9 °C 9,0 °C 55 % 81 % 1024,0 hPa 0,0 l/m² 1,4 km/h (1 Bft) O-NO 0,00 h 6 W/m² 5,9 °C 9,0 °C 2,7 km/h (1 Bft)
15.10.2024 19:00 21,9 °C 7,2 °C 56 % 86 % 1024,2 hPa 0,0 l/m² 2,7 km/h (1 Bft) O-NO 0,00 h 0 W/m² 5,1 °C 7,2 °C 3,7 km/h (1 Bft)
15.10.2024 20:00 22,0 °C 6,2 °C 57 % 90 % 1024,4 hPa 0,0 l/m² 1,6 km/h (1 Bft) O-NO 0,00 h 0 W/m² 4,6 °C 6,2 °C 2,5 km/h (1 Bft)
15.10.2024 21:00 22,1 °C 5,4 °C 57 % 92 % 1024,5 hPa 0,0 l/m² 1,5 km/h (1 Bft) O-NO 0,00 h 0 W/m² 4,1 °C 5,4 °C 2,9 km/h (1 Bft)
15.10.2024 22:00 21,9 °C 6,1 °C 57 % 91 % 1024,3 hPa 0,0 l/m² 6,1 km/h (2 Bft) O-NO 0,00 h 0 W/m² 4,7 °C 5,8 °C 9,6 km/h (2 Bft)
15.10.2024 23:00 21,8 °C 5,8 °C 57 % 90 % 1024,2 hPa 0,0 l/m² 5,3 km/h (1 Bft) O-NO 0,00 h 0 W/m² 4,3 °C 5,8 °C 7,5 km/h (2 Bft)
16.10.2024 00:00 21,8 °C 5,2 °C 57 % 91 % 1023,9 hPa 0,0 l/m² 2,1 km/h (1 Bft) O-NO 0,00 h 0 W/m² 3,8 °C 5,2 °C 3,2 km/h (1 Bft)
16.10.2024 01:00 21,8 °C 4,2 °C 57 % 92 % 1023,6 hPa 0,0 l/m² 0,4 km/h (0 Bft) O-NO 0,00 h 0 W/m² 3,0 °C 4,2 °C 0,7 km/h (0 Bft)
16.10.2024 02:00 21,7 °C 3,5 °C 57 % 93 % 1023,1 hPa 0,0 l/m² 0,6 km/h (0 Bft) O-NO 0,00 h 0 W/m² 2,5 °C 3,5 °C 1,0 km/h (0 Bft)
16.10.2024 03:00 21,7 °C 2,7 °C 57 % 93 % 1022,5 hPa 0,2 l/m² 0,0 km/h (0 Bft) O-NO 0,00 h 0 W/m² 1,7 °C 2,7 °C 0,0 km/h (0 Bft)
16.10.2024 04:00 21,7 °C 2,1 °C 57 % 94 % 1022,1 hPa 0,0 l/m² 0,0 km/h (0 Bft) O-NO 0,00 h 0 W/m² 1,2 °C 2,1 °C 0,0 km/h (0 Bft)
16.10.2024 05:00 21,7 °C 1,5 °C 57 % 94 % 1022,0 hPa 0,0 l/m² 0,0 km/h (0 Bft) O-NO 0,00 h 0 W/m² 0,7 °C 1,5 °C 0,0 km/h (0 Bft)
16.10.2024 06:00 21,7 °C 0,9 °C 56 % 94 % 1021,7 hPa 0,0 l/m² 0,0 km/h (0 Bft) O-NO 0,00 h 0 W/m² 0,0 °C 0,9 °C 0,0 km/h (0 Bft)
16.10.2024 07:00 21,5 °C 0,5 °C 54 % 94 % 1021,6 hPa 0,0 l/m² 0,0 km/h (0 Bft) O-NO 0,00 h 8 W/m² -0,3 °C 0,5 °C 0,0 km/h (0 Bft)
16.10.2024 08:00 21,5 °C 1,5 °C 55 % 95 % 1021,7 hPa 0,0 l/m² 0,2 km/h (0 Bft) O-NO 0,58 h 69 W/m² 0,8 °C 1,5 °C 0,5 km/h (0 Bft)
16.10.2024 09:00 21,9 °C 5,9 °C 55 % 95 % 1021,7 hPa 0,0 l/m² 4,3 km/h (1 Bft) O-NO 1,00 h 231 W/m² 5,1 °C 5,2 °C 7,4 km/h (2 Bft)
16.10.2024 10:00 22,5 °C 9,8 °C 54 % 85 % 1021,3 hPa 0,0 l/m² 12,5 km/h (2 Bft) O 1,00 h 374 W/m² 7,3 °C 6,2 °C 18,0 km/h (3 Bft)
16.10.2024 11:00 23,1 °C 11,9 °C 53 % 77 % 1021,0 hPa 0,0 l/m² 15,3 km/h (3 Bft) O 1,00 h 461 W/m² 7,9 °C 7,4 °C 21,2 km/h (4 Bft)
16.10.2024 12:00 23,4 °C 13,5 °C 53 % 70 % 1020,7 hPa 0,0 l/m² 20,2 km/h (4 Bft) O 1,00 h 515 W/m² 8,3 °C 7,8 °C 26,4 km/h (4 Bft)
16.10.2024 13:00 23,7 °C 14,7 °C 53 % 68 % 1020,1 hPa 0,0 l/m² 20,8 km/h (4 Bft) O 1,00 h 505 W/m² 8,9 °C 9,2 °C 26,3 km/h (4 Bft)
16.10.2024 14:00 23,5 °C 15,9 °C 53 % 67 % 1019,3 hPa 0,0 l/m² 20,1 km/h (4 Bft) O 1,00 h 446 W/m² 9,7 °C 10,9 °C 26,3 km/h (4 Bft)
16.10.2024 15:00 23,2 °C 16,4 °C 54 % 65 % 1018,8 hPa 0,0 l/m² 20,1 km/h (4 Bft) O 1,00 h 341 W/m² 9,8 °C 11,6 °C 27,4 km/h (5 Bft)
16.10.2024 16:00 23,1 °C 16,0 °C 54 % 66 % 1018,5 hPa 0,0 l/m² 19,0 km/h (3 Bft) O 0,78 h 171 W/m² 9,6 °C 11,3 °C 24,8 km/h (4 Bft)
16.10.2024 17:00 22,8 °C 14,4 °C 53 % 71 % 1018,0 hPa 0,0 l/m² 15,6 km/h (3 Bft) O 0,20 h 31 W/m² 9,2 °C 10,4 °C 20,6 km/h (4 Bft)
16.10.2024 18:00 22,5 °C 13,1 °C 54 % 74 % 1018,0 hPa 0,0 l/m² 12,0 km/h (2 Bft) O 0,00 h 6 W/m² 8,6 °C 10,2 °C 15,8 km/h (3 Bft)
16.10.2024 19:00 22,4 °C 11,1 °C 55 % 81 % 1017,9 hPa 0,0 l/m² 4,9 km/h (1 Bft) O-NO 0,00 h 0 W/m² 8,0 °C 11,0 °C 7,2 km/h (2 Bft)
16.10.2024 20:00 22,3 °C 10,5 °C 55 % 84 % 1017,6 hPa 0,0 l/m² 8,7 km/h (2 Bft) O 0,00 h 0 W/m² 7,9 °C 8,9 °C 11,9 km/h (2 Bft)
16.10.2024 21:00 22,3 °C 10,6 °C 55 % 83 % 1017,3 hPa 0,0 l/m² 9,8 km/h (2 Bft) O-NO 0,00 h 0 W/m² 7,9 °C 8,5 °C 13,7 km/h (3 Bft)
16.10.2024 22:00 22,1 °C 10,1 °C 56 % 84 % 1017,1 hPa 0,0 l/m² 10,0 km/h (2 Bft) O 0,00 h 0 W/m² 7,6 °C 7,7 °C 13,4 km/h (3 Bft)
16.10.2024 23:00 22,0 °C 9,5 °C 57 % 86 % 1016,7 hPa 0,0 l/m² 11,4 km/h (2 Bft) O 0,00 h 0 W/m² 7,3 °C 6,3 °C 14,8 km/h (3 Bft)
17.10.2024 00:00 21,9 °C 9,2 °C 57 % 86 % 1016,4 hPa 0,0 l/m² 11,2 km/h (2 Bft) O 0,00 h 0 W/m² 7,0 °C 6,1 °C 14,3 km/h (3 Bft)
17.10.2024 01:00 21,9 °C 8,4 °C 57 % 88 % 1016,2 hPa 0,0 l/m² 8,6 km/h (2 Bft) O 0,00 h 0 W/m² 6,5 °C 6,8 °C 11,3 km/h (2 Bft)
17.10.2024 02:00 21,9 °C 8,0 °C 57 % 88 % 1016,1 hPa 0,0 l/m² 7,1 km/h (2 Bft) O 0,00 h 0 W/m² 6,2 °C 7,4 °C 8,8 km/h (2 Bft)
17.10.2024 03:00 21,8 °C 7,7 °C 57 % 89 % 1015,9 hPa 0,0 l/m² 3,9 km/h (1 Bft) O-NO 0,00 h 0 W/m² 6,0 °C 7,5 °C 6,1 km/h (2 Bft)
17.10.2024 04:00 21,8 °C 7,3 °C 57 % 90 % 1015,7 hPa 0,0 l/m² 4,7 km/h (1 Bft) O 0,00 h 0 W/m² 5,8 °C 7,3 °C 7,0 km/h (2 Bft)
17.10.2024 05:00 21,8 °C 7,4 °C 57 % 90 % 1015,6 hPa 0,0 l/m² 3,5 km/h (1 Bft) O-NO 0,00 h 0 W/m² 5,8 °C 7,4 °C 5,7 km/h (2 Bft)
17.10.2024 06:00 21,9 °C 7,3 °C 57 % 90 % 1015,8 hPa 0,0 l/m² 0,7 km/h (0 Bft) S-SW 0,00 h 0 W/m² 5,9 °C 7,3 °C 1,6 km/h (1 Bft)
17.10.2024 07:00 21,0 °C 6,9 °C 49 % 91 % 1015,7 hPa 0,0 l/m² 5,3 km/h (1 Bft) O-NO 0,00 h 10 W/m² 5,6 °C 6,5 °C 7,2 km/h (2 Bft)
17.10.2024 08:00 21,3 °C 8,3 °C 51 % 90 % 1015,7 hPa 0,0 l/m² 3,8 km/h (1 Bft) O-NO 0,47 h 58 W/m² 6,8 °C 8,0 °C 6,4 km/h (2 Bft)
17.10.2024 09:00 21,6 °C 10,0 °C 52 % 87 % 1015,8 hPa 0,0 l/m² 3,6 km/h (1 Bft) O 0,92 h 127 W/m² 7,8 °C 10,0 °C 5,6 km/h (2 Bft)
17.10.2024 10:00 22,2 °C 12,3 °C 52 % 81 % 1016,0 hPa 0,0 l/m² 10,0 km/h (2 Bft) O-SO 1,00 h 322 W/m² 9,1 °C 10,2 °C 13,4 km/h (3 Bft)
17.10.2024 11:00 22,7 °C 14,1 °C 52 % 77 % 1016,1 hPa 0,0 l/m² 10,7 km/h (2 Bft) SO 1,00 h 346 W/m² 10,1 °C 11,9 °C 14,6 km/h (3 Bft)
17.10.2024 12:00 22,7 °C 15,8 °C 52 % 74 % 1015,9 hPa 0,0 l/m² 8,8 km/h (2 Bft) SO 1,00 h 385 W/m² 11,3 °C 14,6 °C 12,6 km/h (2 Bft)
17.10.2024 13:00 22,5 °C 16,9 °C 53 % 72 % 1015,9 hPa 0,0 l/m² 7,4 km/h (2 Bft) S-SO 1,00 h 290 W/m² 11,9 °C 16,3 °C 10,3 km/h (2 Bft)
17.10.2024 14:00 22,3 °C 17,7 °C 53 % 73 % 1015,7 hPa 0,0 l/m² 5,4 km/h (1 Bft) O-SO 1,00 h 338 W/m² 12,7 °C 17,6 °C 8,1 km/h (2 Bft)
17.10.2024 15:00 22,4 °C 19,2 °C 54 % 71 % 1015,4 hPa 0,0 l/m² 4,7 km/h (1 Bft) O-SO 1,00 h 352 W/m² 13,8 °C 19,1 °C 7,6 km/h (2 Bft)
17.10.2024 16:00 22,3 °C 19,4 °C 54 % 71 % 1015,3 hPa 0,0 l/m² 9,3 km/h (2 Bft) O 1,00 h 231 W/m² 14,0 °C 18,2 °C 12,4 km/h (2 Bft)
17.10.2024 17:00 22,2 °C 17,5 °C 55 % 76 % 1015,5 hPa 0,0 l/m² 6,5 km/h (2 Bft) O-NO 0,38 h 45 W/m² 13,3 °C 16,9 °C 8,6 km/h (2 Bft)
17.10.2024 18:00 22,1 °C 15,6 °C 55 % 82 % 1015,9 hPa 0,0 l/m² 3,3 km/h (1 Bft) O-NO 0,00 h 8 W/m² 12,6 °C 15,6 °C 4,9 km/h (1 Bft)
17.10.2024 19:00 22,1 °C 14,0 °C 55 % 86 % 1016,0 hPa 0,0 l/m² 3,8 km/h (1 Bft) O-NO 0,00 h 0 W/m² 11,7 °C 14,0 °C 5,8 km/h (2 Bft)
17.10.2024 20:00 22,0 °C 12,6 °C 56 % 88 % 1016,1 hPa 0,0 l/m² 0,1 km/h (0 Bft) O-NO 0,00 h 0 W/m² 10,7 °C 12,6 °C 0,5 km/h (0 Bft)
17.10.2024 21:00 21,9 °C 11,8 °C 56 % 91 % 1016,2 hPa 0,0 l/m² 0,6 km/h (0 Bft) O-NO 0,00 h 0 W/m² 10,3 °C 11,8 °C 1,5 km/h (1 Bft)
17.10.2024 22:00 21,9 °C 11,4 °C 56 % 91 % 1016,3 hPa 0,0 l/m² 0,9 km/h (0 Bft) O-NO 0,00 h 0 W/m² 9,9 °C 11,4 °C 2,2 km/h (1 Bft)
17.10.2024 23:00 21,8 °C 11,1 °C 57 % 91 % 1016,0 hPa 0,0 l/m² 2,7 km/h (1 Bft) O-NO 0,00 h 0 W/m² 9,7 °C 11,1 °C 4,3 km/h (1 Bft)
18.10.2024 00:00 21,9 °C 10,4 °C 57 % 92 % 1016,2 hPa 0,0 l/m² 0,3 km/h (0 Bft) O-NO 0,00 h 0 W/m² 9,1 °C 10,4 °C 0,7 km/h (0 Bft)
18.10.2024 01:00 21,9 °C 9,2 °C 57 % 93 % 1016,1 hPa 0,0 l/m² 0,0 km/h (0 Bft) O-NO 0,00 h 0 W/m² 8,1 °C 9,2 °C 0,0 km/h (0 Bft)
18.10.2024 02:00 21,8 °C 8,4 °C 57 % 94 % 1015,9 hPa 0,0 l/m² 0,0 km/h (0 Bft) O-NO 0,00 h 0 W/m² 7,5 °C 8,4 °C 0,0 km/h (0 Bft)
18.10.2024 03:00 21,8 °C 7,9 °C 57 % 95 % 1015,7 hPa 0,0 l/m² 0,2 km/h (0 Bft) O-NO 0,00 h 0 W/m² 7,0 °C 7,9 °C 0,5 km/h (0 Bft)
18.10.2024 04:00 21,7 °C 8,1 °C 57 % 95 % 1015,9 hPa 0,0 l/m² 0,3 km/h (0 Bft) O-NO 0,00 h 0 W/m² 7,3 °C 8,1 °C 0,7 km/h (0 Bft)
18.10.2024 05:00 21,7 °C 7,4 °C 57 % 95 % 1015,9 hPa 0,0 l/m² 0,0 km/h (0 Bft) O-NO 0,00 h 0 W/m² 6,7 °C 7,4 °C 0,0 km/h (0 Bft)
18.10.2024 06:00 21,7 °C 6,9 °C 57 % 95 % 1015,7 hPa 0,0 l/m² 0,1 km/h (0 Bft) O-NO 0,00 h 0 W/m² 6,2 °C 6,9 °C 0,3 km/h (0 Bft)
18.10.2024 07:00 21,6 °C 6,9 °C 59 % 95 % 1015,8 hPa 0,0 l/m² 0,5 km/h (0 Bft) O-NO 0,00 h 7 W/m² 6,1 °C 6,9 °C 1,0 km/h (0 Bft)
18.10.2024 08:00 21,7 °C 7,2 °C 59 % 95 % 1016,1 hPa 0,0 l/m² 0,0 km/h (0 Bft) O-NO 0,45 h 56 W/m² 6,5 °C 7,2 °C 0,0 km/h (0 Bft)
18.10.2024 09:00 21,9 °C 9,3 °C 60 % 96 % 1015,9 hPa 0,0 l/m² 1,7 km/h (1 Bft) O-NO 1,00 h 184 W/m² 8,6 °C 9,3 °C 3,4 km/h (1 Bft)
18.10.2024 10:00 22,4 °C 11,8 °C 59 % 90 % 1015,9 hPa 0,0 l/m² 0,9 km/h (0 Bft) O-NO 1,00 h 254 W/m² 10,3 °C 11,8 °C 2,2 km/h (1 Bft)
18.10.2024 11:00 22,8 °C 14,1 °C 58 % 83 % 1015,8 hPa 0,0 l/m² 2,3 km/h (1 Bft) O-NO 1,00 h 411 W/m² 11,3 °C 14,1 °C 4,2 km/h (1 Bft)
18.10.2024 12:00 23,2 °C 15,5 °C 57 % 79 % 1015,5 hPa 0,0 l/m² 7,2 km/h (2 Bft) O 1,00 h 428 W/m² 12,0 °C 14,8 °C 10,3 km/h (2 Bft)
18.10.2024 13:00 23,2 °C 16,2 °C 57 % 78 % 1015,2 hPa 0,0 l/m² 7,1 km/h (2 Bft) O 1,00 h 405 W/m² 12,3 °C 15,5 °C 10,4 km/h (2 Bft)
18.10.2024 14:00 23,0 °C 16,2 °C 57 % 77 % 1014,7 hPa 0,0 l/m² 5,3 km/h (1 Bft) O-NO 1,00 h 229 W/m² 12,2 °C 16,0 °C 8,4 km/h (2 Bft)
18.10.2024 15:00 22,7 °C 16,5 °C 58 % 76 % 1014,5 hPa 0,0 l/m² 7,3 km/h (2 Bft) O 1,00 h 189 W/m² 12,3 °C 15,8 °C 10,5 km/h (2 Bft)
18.10.2024 16:00 22,5 °C 16,2 °C 57 % 79 % 1014,4 hPa 0,0 l/m² 5,8 km/h (2 Bft) O-NO 1,00 h 104 W/m² 12,5 °C 16,0 °C 8,4 km/h (2 Bft)
18.10.2024 17:00 22,3 °C 15,3 °C 58 % 83 % 1014,3 hPa 0,0 l/m² 0,7 km/h (0 Bft) O-NO 0,27 h 35 W/m² 12,4 °C 15,3 °C 1,3 km/h (1 Bft)
18.10.2024 18:00 22,2 °C 13,4 °C 58 % 88 % 1014,3 hPa 0,0 l/m² 0,3 km/h (0 Bft) O-NO 0,00 h 6 W/m² 11,4 °C 13,4 °C 0,7 km/h (0 Bft)
18.10.2024 19:00 22,3 °C 12,4 °C 59 % 90 % 1014,3 hPa 0,0 l/m² 2,1 km/h (1 Bft) O-NO 0,00 h 0 W/m² 10,8 °C 12,4 °C 3,4 km/h (1 Bft)
18.10.2024 20:00 22,3 °C 11,3 °C 59 % 91 % 1014,1 hPa 0,0 l/m² 2,0 km/h (1 Bft) O-NO 0,00 h 0 W/m² 9,9 °C 11,3 °C 3,0 km/h (1 Bft)
18.10.2024 21:00 22,4 °C 10,1 °C 59 % 93 % 1014,0 hPa 0,0 l/m² 0,0 km/h (0 Bft) O-NO 0,00 h 0 W/m² 9,0 °C 10,1 °C 0,0 km/h (0 Bft)
18.10.2024 22:00 22,3 °C 9,3 °C 58 % 94 % 1014,1 hPa 0,0 l/m² 0,0 km/h (0 Bft) O-NO 0,00 h 0 W/m² 8,4 °C 9,3 °C 0,0 km/h (0 Bft)
18.10.2024 23:00 22,1 °C 8,8 °C 58 % 94 % 1014,5 hPa 0,0 l/m² 0,1 km/h (0 Bft) O-NO 0,00 h 0 W/m² 8,0 °C 8,8 °C 0,3 km/h (0 Bft)
19.10.2024 00:00 22,0 °C 9,4 °C 58 % 95 % 1014,4 hPa 0,0 l/m² 0,2 km/h (0 Bft) O-NO 0,00 h 0 W/m² 8,7 °C 9,4 °C 0,7 km/h (0 Bft)
19.10.2024 01:00 21,9 °C 9,7 °C 59 % 95 % 1014,3 hPa 0,0 l/m² 0,5 km/h (0 Bft) O-NO 0,00 h 0 W/m² 8,9 °C 9,7 °C 1,3 km/h (1 Bft)
19.10.2024 02:00 21,8 °C 10,2 °C 59 % 95 % 1014,5 hPa 0,0 l/m² 0,1 km/h (0 Bft) O-NO 0,00 h 0 W/m² 9,4 °C 10,2 °C 0,4 km/h (0 Bft)
19.10.2024 03:00 21,7 °C 11,2 °C 59 % 95 % 1014,7 hPa 0,0 l/m² 0,4 km/h (0 Bft) O-NO 0,00 h 0 W/m² 10,4 °C 11,2 °C 1,9 km/h (1 Bft)
19.10.2024 04:00 21,7 °C 11,3 °C 59 % 93 % 1014,2 hPa 0,0 l/m² 0,0 km/h (0 Bft) SW 0,00 h 0 W/m² 10,3 °C 11,3 °C 0,2 km/h (0 Bft)
19.10.2024 05:00 21,7 °C 11,1 °C 59 % 94 % 1014,6 hPa 0,0 l/m² 1,0 km/h (0 Bft) O 0,00 h 0 W/m² 10,2 °C 11,1 °C 2,1 km/h (1 Bft)
19.10.2024 06:00 21,7 °C 10,8 °C 59 % 94 % 1015,0 hPa 0,0 l/m² 0,4 km/h (0 Bft) O 0,00 h 0 W/m² 9,8 °C 10,8 °C 1,2 km/h (1 Bft)
19.10.2024 07:00 21,7 °C 10,5 °C 59 % 94 % 1015,2 hPa 0,0 l/m² 0,4 km/h (0 Bft) O 0,00 h 9 W/m² 9,7 °C 10,5 °C 1,5 km/h (1 Bft)
19.10.2024 08:00 21,7 °C 10,6 °C 59 % 95 % 1015,7 hPa 0,0 l/m² 1,5 km/h (1 Bft) O 0,43 h 45 W/m² 9,8 °C 10,6 °C 3,1 km/h (1 Bft)
19.10.2024 09:00 21,8 °C 12,3 °C 59 % 95 % 1016,1 hPa 0,0 l/m² 2,0 km/h (1 Bft) O 0,98 h 109 W/m² 11,4 °C 12,3 °C 4,3 km/h (1 Bft)
19.10.2024 10:00 21,8 °C 14,5 °C 59 % 91 % 1016,5 hPa 0,0 l/m² 3,0 km/h (1 Bft) SO 1,02 h 162 W/m² 13,0 °C 14,4 °C 5,8 km/h (2 Bft)
19.10.2024 11:00 22,2 °C 17,4 °C 58 % 84 % 1016,8 hPa 0,0 l/m² 12,6 km/h (3 Bft) S 0,98 h 273 W/m² 14,6 °C 14,9 °C 18,1 km/h (3 Bft)
19.10.2024 12:00 22,3 °C 18,7 °C 57 % 79 % 1017,1 hPa 0,0 l/m² 14,4 km/h (3 Bft) S 1,00 h 339 W/m² 15,0 °C 15,8 °C 19,9 km/h (4 Bft)
19.10.2024 13:00 22,2 °C 18,9 °C 57 % 77 % 1017,2 hPa 0,0 l/m² 14,0 km/h (3 Bft) S 1,02 h 177 W/m² 14,8 °C 16,3 °C 19,3 km/h (3 Bft)
19.10.2024 14:00 22,1 °C 19,6 °C 58 % 75 % 1017,3 hPa 0,0 l/m² 15,1 km/h (3 Bft) S 1,00 h 250 W/m² 15,1 °C 16,8 °C 21,7 km/h (4 Bft)
19.10.2024 15:00 22,2 °C 19,9 °C 57 % 73 % 1017,5 hPa 0,0 l/m² 14,6 km/h (3 Bft) S 0,98 h 266 W/m² 14,8 °C 17,3 °C 20,1 km/h (4 Bft)
19.10.2024 16:00 22,2 °C 19,3 °C 58 % 72 % 1018,0 hPa 0,0 l/m² 13,0 km/h (3 Bft) S 0,97 h 139 W/m² 14,1 °C 17,0 °C 18,1 km/h (3 Bft)
19.10.2024 17:00 22,1 °C 17,7 °C 59 % 77 % 1018,7 hPa 0,0 l/m² 7,3 km/h (2 Bft) S-SO 0,00 h 29 W/m² 13,6 °C 17,0 °C 11,0 km/h (2 Bft)
19.10.2024 18:00 22,0 °C 16,1 °C 60 % 82 % 1019,1 hPa 0,0 l/m² 3,1 km/h (1 Bft) S-SO 0,00 h 5 W/m² 12,9 °C 16,1 °C 5,3 km/h (1 Bft)
19.10.2024 19:00 21,9 °C 14,6 °C 60 % 86 % 1019,8 hPa 0,0 l/m² 0,0 km/h (0 Bft) S-SO 0,00 h 0 W/m² 12,3 °C 14,6 °C 0,4 km/h (0 Bft)
19.10.2024 20:00 21,9 °C 13,1 °C 60 % 90 % 1020,1 hPa 0,0 l/m² 0,1 km/h (0 Bft) S-SO 0,00 h 0 W/m² 11,5 °C 13,1 °C 0,6 km/h (0 Bft)
19.10.2024 21:00 21,9 °C 11,8 °C 60 % 92 % 1020,5 hPa 0,0 l/m² 0,1 km/h (0 Bft) O 0,00 h 0 W/m² 10,5 °C 11,8 °C 0,5 km/h (0 Bft)
19.10.2024 22:00 21,9 °C 11,5 °C 60 % 94 % 1020,8 hPa 0,0 l/m² 1,4 km/h (1 Bft) O-NO 0,00 h 0 W/m² 10,5 °C 11,5 °C 2,9 km/h (1 Bft)
19.10.2024 23:00 21,7 °C 11,8 °C 60 % 94 % 1021,0 hPa 0,0 l/m² 0,7 km/h (0 Bft) NO 0,00 h 0 W/m² 10,9 °C 11,8 °C 1,4 km/h (1 Bft)
20.10.2024 00:00 21,6 °C 11,3 °C 60 % 94 % 1021,4 hPa 0,0 l/m² 0,1 km/h (0 Bft) O 0,00 h 0 W/m² 10,3 °C 11,3 °C 0,2 km/h (0 Bft)
20.10.2024 01:00 21,6 °C 10,8 °C 59 % 95 % 1021,8 hPa 0,0 l/m² 0,0 km/h (0 Bft) O 0,00 h 0 W/m² 10,0 °C 10,8 °C 0,0 km/h (0 Bft)
20.10.2024 02:00 21,6 °C 10,6 °C 59 % 95 % 1021,8 hPa 0,0 l/m² 0,1 km/h (0 Bft) O 0,00 h 0 W/m² 9,8 °C 10,6 °C 0,5 km/h (0 Bft)
20.10.2024 03:00 21,6 °C 10,7 °C 59 % 95 % 1021,9 hPa 0,0 l/m² 0,7 km/h (0 Bft) O 0,00 h 0 W/m² 10,1 °C 10,7 °C 1,6 km/h (1 Bft)
20.10.2024 04:00 21,6 °C 10,8 °C 59 % 95 % 1022,0 hPa 0,0 l/m² 0,5 km/h (0 Bft) O 0,00 h 0 W/m² 10,1 °C 10,8 °C 1,2 km/h (1 Bft)
20.10.2024 05:00 21,6 °C 11,0 °C 59 % 96 % 1021,9 hPa 0,0 l/m² 0,2 km/h (0 Bft) O-NO 0,00 h 0 W/m² 10,3 °C 11,0 °C 0,5 km/h (0 Bft)
20.10.2024 06:00 21,5 °C 10,5 °C 59 % 96 % 1021,9 hPa 0,0 l/m² 0,2 km/h (0 Bft) O-NO 0,00 h 0 W/m² 9,9 °C 10,5 °C 0,3 km/h (0 Bft)
20.10.2024 07:00 21,4 °C 10,0 °C 59 % 96 % 1022,1 hPa 0,0 l/m² 0,4 km/h (0 Bft) O-NO 0,00 h 5 W/m² 9,4 °C 10,0 °C 0,8 km/h (0 Bft)
20.10.2024 08:00 21,4 °C 10,6 °C 59 % 96 % 1022,5 hPa 0,0 l/m² 0,4 km/h (0 Bft) O-NO 0,38 h 36 W/m² 9,9 °C 10,6 °C 0,9 km/h (0 Bft)
20.10.2024 09:00 21,6 °C 12,1 °C 60 % 96 % 1022,6 hPa 0,0 l/m² 1,0 km/h (0 Bft) O-NO 1,00 h 151 W/m² 11,4 °C 12,1 °C 1,7 km/h (1 Bft)
20.10.2024 10:00 21,8 °C 14,8 °C 59 % 90 % 1022,3 hPa 0,0 l/m² 3,6 km/h (1 Bft) O 1,00 h 324 W/m² 13,1 °C 14,8 °C 6,3 km/h (2 Bft)
20.10.2024 11:00 22,0 °C 16,5 °C 59 % 83 % 1021,9 hPa 0,0 l/m² 6,1 km/h (2 Bft) O-SO 1,00 h 416 W/m² 13,6 °C 16,2 °C 8,6 km/h (2 Bft)
20.10.2024 12:00 22,2 °C 17,6 °C 61 % 79 % 1021,7 hPa 0,0 l/m² 5,3 km/h (1 Bft) O-SO 1,00 h 448 W/m² 13,8 °C 17,2 °C 8,2 km/h (2 Bft)
20.10.2024 13:00 22,3 °C 18,6 °C 60 % 72 % 1021,6 hPa 0,0 l/m² 8,7 km/h (2 Bft) S-SO 1,00 h 401 W/m² 13,5 °C 17,6 °C 12,3 km/h (2 Bft)
20.10.2024 14:00 22,2 °C 19,2 °C 60 % 69 % 1021,0 hPa 0,0 l/m² 9,8 km/h (2 Bft) SO 1,00 h 344 W/m² 13,4 °C 17,9 °C 13,3 km/h (3 Bft)
20.10.2024 15:00 22,1 °C 19,2 °C 60 % 71 % 1020,9 hPa 0,0 l/m² 11,0 km/h (2 Bft) S-SO 1,00 h 204 W/m² 13,9 °C 17,5 °C 14,9 km/h (3 Bft)
20.10.2024 16:00 22,2 °C 18,7 °C 59 % 74 % 1020,9 hPa 0,0 l/m² 8,7 km/h (2 Bft) S-SO 1,00 h 100 W/m² 13,9 °C 17,7 °C 12,4 km/h (2 Bft)
20.10.2024 17:00 22,1 °C 17,6 °C 59 % 78 % 1020,8 hPa 0,0 l/m² 6,3 km/h (2 Bft) SO 0,07 h 27 W/m² 13,7 °C 17,1 °C 9,3 km/h (2 Bft)
20.10.2024 18:00 22,1 °C 15,9 °C 60 % 84 % 1021,0 hPa 0,0 l/m² 0,6 km/h (0 Bft) N 0,00 h 0 W/m² 13,2 °C 15,9 °C 1,5 km/h (1 Bft)
20.10.2024 19:00 22,1 °C 15,1 °C 61 % 87 % 1021,4 hPa 0,0 l/m² 0,2 km/h (0 Bft) N 0,00 h 0 W/m² 13,0 °C 15,1 °C 0,6 km/h (0 Bft)
20.10.2024 20:00 22,2 °C 15,3 °C 61 % 85 % 1021,4 hPa 0,0 l/m² 8,0 km/h (2 Bft) S-SO 0,00 h 0 W/m² 12,8 °C 14,1 °C 11,9 km/h (2 Bft)
20.10.2024 21:00 22,1 °C 15,2 °C 61 % 83 % 1021,6 hPa 0,0 l/m² 13,5 km/h (3 Bft) S 0,00 h 0 W/m² 12,4 °C 12,0 °C 19,4 km/h (3 Bft)
20.10.2024 22:00 21,9 °C 15,3 °C 61 % 83 % 1021,6 hPa 0,0 l/m² 14,3 km/h (3 Bft) S 0,00 h 0 W/m² 12,4 °C 11,8 °C 20,2 km/h (4 Bft)
20.10.2024 23:00 21,8 °C 15,1 °C 62 % 83 % 1021,6 hPa 0,0 l/m² 12,8 km/h (3 Bft) S-SO 0,00 h 0 W/m² 12,3 °C 12,1 °C 18,7 km/h (3 Bft)
Min-Datum _ 17.10.24 16.10.24 17.10.24 14.10.24 18.10.24 - 20.10.24 - - - 16.10.24 16.10.24 20.10.24
_ Min-Zeit 07:23 07:32 07:18 12:51 21:06 - 20:00 - - - 07:32 07:32 20:01
Minimum _ 20,7 °C 0,3 °C 46 % 61 % 1013,9 hPa - 0,0 km/h (0 Bft) - - - -0,5 °C 0,3 °C 0,0 km/h (0 Bft)
Max-Datum _ 16.10.24 19.10.24 20.10.24 20.10.24 15.10.24 16.10.24 16.10.24 - 19.10.24 15.10.24 19.10.24 17.10.24 16.10.24
_ Max-Zeit 14:01 14:25 23:00 09:01 10:39 03:44 13:15 - 15:23 12:37 14:25 16:01 15:13
Maximum _ 23,7 °C 20,2 °C 62 % 96 % 1025,2 hPa 0,2 l/m² 27,5 km/h
O (5 Bft)
- 0,05 h 663 W/m² 15,6 °C 19,7 °C 35,4 km/h
O (5 Bft)
Durchschnitt _ 22,0 °C 10,9 °C 57 % 85 % 1018,9 hPa #0,2 l/m² 4,6 km/h (1 Bft) O-NO #60:00 h 103 W/m² 8,4 °C 10,1 °C 6,7 km/h (2 Bft)
© 2009 Mathias Hoßbach